createdAt,value
2018-05-26T00:00:17.310Z,11.70
2018-05-26T00:02:45.701Z,11.90
2018-05-26T00:05:14.860Z,14.53
2018-05-26T00:07:43.013Z,11.83
2018-05-26T00:10:11.324Z,11.03
2018-05-26T00:12:40.356Z,15.53
2018-05-26T00:15:09.287Z,13.73
2018-05-26T00:17:37.387Z,11.07
2018-05-26T00:20:05.889Z,12.67
2018-05-26T00:22:34.260Z,12.73
2018-05-26T00:25:02.481Z,15.70
2018-05-26T00:27:30.696Z,11.97
2018-05-26T00:29:59.921Z,11.27
2018-05-26T00:32:28.081Z,11.43
2018-05-26T00:34:57.050Z,11.70
2018-05-26T00:37:25.427Z,10.17
2018-05-26T00:39:53.657Z,9.77
2018-05-26T00:42:22.891Z,11.90
2018-05-26T00:44:51.183Z,10.93
2018-05-26T00:47:19.810Z,13.00
2018-05-26T00:49:48.211Z,11.37
2018-05-26T00:52:16.540Z,10.30
2018-05-26T00:54:45.591Z,14.03
2018-05-26T00:57:13.955Z,17.93
2018-05-26T00:59:42.339Z,11.07
2018-05-26T01:02:10.874Z,14.10
2018-05-26T01:04:40.120Z,10.17
2018-05-26T01:07:08.440Z,12.57
2018-05-26T01:09:37.499Z,10.87
2018-05-26T01:12:05.794Z,15.90
2018-05-26T01:14:34.161Z,11.70
2018-05-26T01:17:03.177Z,10.10
2018-05-26T01:19:32.427Z,9.67
2018-05-26T01:22:01.909Z,11.20
2018-05-26T01:24:30.289Z,9.93
2018-05-26T01:26:58.434Z,10.10
2018-05-26T01:29:27.495Z,11.63
2018-05-26T01:31:55.778Z,11.93
2018-05-26T01:34:25.361Z,10.50
2018-05-26T01:36:53.859Z,14.23
2018-05-26T01:39:22.472Z,11.50
2018-05-26T01:41:51.525Z,11.87
2018-05-26T01:44:20.003Z,13.27
2018-05-26T01:46:48.448Z,14.47
2018-05-26T01:49:17.638Z,12.50
2018-05-26T01:51:46.810Z,18.60
2018-05-26T01:54:14.976Z,17.73
2018-05-26T01:56:43.456Z,14.57
2018-05-26T01:59:12.578Z,15.07
2018-05-26T02:01:41.033Z,13.93
2018-05-26T02:04:09.250Z,12.90
2018-05-26T02:06:37.761Z,13.77
2018-05-26T02:09:06.113Z,12.37
2018-05-26T02:11:34.210Z,12.77
2018-05-26T02:14:02.640Z,13.33
2018-05-26T02:16:31.553Z,13.80
2018-05-26T02:18:59.783Z,13.30
2018-05-26T02:21:27.975Z,13.50
2018-05-26T02:23:57.408Z,13.47
2018-05-26T02:26:25.845Z,13.53
2018-05-26T02:28:54.093Z,15.60
2018-05-26T02:31:23.348Z,14.30
2018-05-26T02:33:52.454Z,16.80
2018-05-26T02:36:20.856Z,16.17
2018-05-26T02:38:49.176Z,15.83
2018-05-26T02:41:18.334Z,12.77
2018-05-26T02:43:46.537Z,25.60
2018-05-26T02:46:14.932Z,22.87
2018-05-26T02:48:44.033Z,18.07
2018-05-26T02:51:12.677Z,16.27
2018-05-26T02:53:41.083Z,13.57
2018-05-26T02:56:10.140Z,10.20
2018-05-26T02:58:38.536Z,9.67
2018-05-26T03:01:06.803Z,13.07
2018-05-26T03:03:35.080Z,13.60
2018-05-26T03:06:08.939Z,17.27
2018-05-26T03:08:42.925Z,48.13
2018-05-26T03:11:17.628Z,34.80
2018-05-26T03:13:52.001Z,50.40
2018-05-26T03:16:20.373Z,31.70
2018-05-26T03:18:49.096Z,41.70
2018-05-26T03:21:17.369Z,40.30
2018-05-26T03:23:46.054Z,21.83
2018-05-26T03:26:14.341Z,44.03
2018-05-26T03:28:42.698Z,17.67
2018-05-26T03:31:10.899Z,19.17
2018-05-26T03:33:39.368Z,31.40
2018-05-26T03:36:07.500Z,16.27
2018-05-26T03:38:36.381Z,17.60
2018-05-26T03:41:04.827Z,27.87
2018-05-26T03:43:33.588Z,47.53
2018-05-26T03:46:01.825Z,36.97
2018-05-26T03:48:30.870Z,46.43
2018-05-26T03:50:59.413Z,55.77
2018-05-26T03:53:27.757Z,50.73
2018-05-26T03:58:11.097Z,71.17
2018-05-26T04:00:39.574Z,26.97
2018-05-26T04:03:07.868Z,31.13
2018-05-26T04:05:36.986Z,24.67
2018-05-26T04:08:05.347Z,86.73
2018-05-26T04:10:33.901Z,34.63
2018-05-26T04:13:02.202Z,23.37
2018-05-26T04:15:31.457Z,24.17
2018-05-26T04:17:59.818Z,41.90
2018-05-26T04:20:28.041Z,28.37
2018-05-26T04:22:56.432Z,62.87
2018-05-26T04:25:24.887Z,35.47
2018-05-26T04:27:53.183Z,44.53
2018-05-26T04:30:22.244Z,17.23
2018-05-26T04:32:50.529Z,24.97
2018-05-26T04:35:19.064Z,31.40
2018-05-26T04:37:47.893Z,52.40
2018-05-26T04:40:16.248Z,23.70
2018-05-26T04:42:44.547Z,20.00
2018-05-26T04:45:12.798Z,31.43
2018-05-26T04:47:40.818Z,26.97
2018-05-26T04:50:09.810Z,34.33
2018-05-26T04:52:38.270Z,27.23
2018-05-26T04:55:06.481Z,19.03
2018-05-26T04:57:34.825Z,17.00
2018-05-26T05:00:03.029Z,10.87
2018-05-26T05:02:31.381Z,12.17
2018-05-26T05:04:59.845Z,26.20
2018-05-26T05:07:28.110Z,12.10
2018-05-26T05:09:56.163Z,19.07
2018-05-26T05:12:25.032Z,10.53
2018-05-26T05:14:53.341Z,13.17
2018-05-26T05:17:21.460Z,16.07
2018-05-26T05:19:50.725Z,19.33
2018-05-26T05:22:19.219Z,21.70
2018-05-26T05:24:47.571Z,13.43
2018-05-26T05:27:16.619Z,10.90
2018-05-26T05:29:44.909Z,11.43
2018-05-26T05:32:13.317Z,10.67
2018-05-26T05:34:41.476Z,15.77
2018-05-26T05:37:09.831Z,23.37
2018-05-26T05:39:38.368Z,10.33
2018-05-26T05:42:07.023Z,14.13
2018-05-26T05:44:35.299Z,10.73
2018-05-26T05:47:03.532Z,9.57
2018-05-26T05:49:32.081Z,11.17
2018-05-26T05:52:00.365Z,12.00
2018-05-26T05:54:28.634Z,9.27
2018-05-26T05:56:57.037Z,10.23
2018-05-26T05:59:25.753Z,9.47
2018-05-26T06:01:54.034Z,9.00
2018-05-26T06:04:22.304Z,8.70
2018-05-26T06:06:50.852Z,8.40
2018-05-26T06:09:19.273Z,8.20
2018-05-26T06:11:47.692Z,8.20
2018-05-26T06:14:16.167Z,9.17
2018-05-26T06:16:44.655Z,8.40
2018-05-26T06:19:13.121Z,7.73
2018-05-26T06:21:41.252Z,7.80
2018-05-26T06:24:09.629Z,7.20
2018-05-26T06:26:37.914Z,8.13
2018-05-26T06:29:06.539Z,7.83
2018-05-26T06:31:34.890Z,8.27
2018-05-26T06:34:03.185Z,8.43
2018-05-26T06:36:31.544Z,59.27
2018-05-26T06:39:00.130Z,22.57
2018-05-26T06:41:28.598Z,17.27
2018-05-26T06:43:56.667Z,7.73
2018-05-26T06:46:25.566Z,7.13
2018-05-26T06:48:53.814Z,8.23
2018-05-26T06:51:22.206Z,6.40
2018-05-26T06:53:50.446Z,6.47
2018-05-26T06:56:18.949Z,5.60
2018-05-26T06:58:47.444Z,5.57
2018-05-26T07:01:15.872Z,4.93
2018-05-26T07:03:44.261Z,5.33
2018-05-26T07:06:12.772Z,5.10
2018-05-26T07:08:41.001Z,5.13
2018-05-26T07:11:09.502Z,5.10
2018-05-26T07:13:38.773Z,4.43
2018-05-26T07:16:07.139Z,4.87
2018-05-26T07:18:35.405Z,5.03
2018-05-26T07:21:03.862Z,4.80
2018-05-26T07:23:32.317Z,4.90
2018-05-26T07:26:01.441Z,5.43
2018-05-26T07:28:29.667Z,6.30
2018-05-26T07:30:58.166Z,6.73
2018-05-26T07:33:27.480Z,5.17
2018-05-26T07:35:55.874Z,7.70
2018-05-26T07:38:24.298Z,6.33
2018-05-26T07:40:52.887Z,7.70
2018-05-26T07:43:21.140Z,4.30
2018-05-26T07:45:49.616Z,4.60
2018-05-26T07:48:18.205Z,5.43
2018-05-26T07:50:46.611Z,4.40
2018-05-26T07:53:15.557Z,5.33
2018-05-26T07:55:44.902Z,5.60
2018-05-26T07:58:13.148Z,4.80
2018-05-26T08:00:41.321Z,5.03
2018-05-26T08:03:09.556Z,5.37
2018-05-26T08:05:38.741Z,9.23
2018-05-26T08:08:07.969Z,5.10
2018-05-26T08:10:36.216Z,4.90
2018-05-26T08:13:05.148Z,4.97
2018-05-26T08:15:33.690Z,5.30
2018-05-26T08:18:02.704Z,5.27
2018-05-26T08:20:31.082Z,5.60
2018-05-26T08:22:59.286Z,6.37
2018-05-26T08:25:27.873Z,4.80
2018-05-26T08:27:56.133Z,5.77
2018-05-26T08:30:24.419Z,5.33
2018-05-26T08:32:53.248Z,15.03
2018-05-26T08:35:22.271Z,6.73
2018-05-26T08:37:50.448Z,5.93
2018-05-26T08:40:18.642Z,5.27
2018-05-26T08:42:46.780Z,6.70
2018-05-26T08:45:14.987Z,7.30
2018-05-26T08:47:43.239Z,6.50
2018-05-26T08:50:11.569Z,5.67
2018-05-26T08:52:40.237Z,8.17
2018-05-26T08:55:08.449Z,7.40
2018-05-26T08:57:37.531Z,7.83
2018-05-26T09:00:05.867Z,6.50
2018-05-26T09:02:35.441Z,6.37
2018-05-26T09:05:03.900Z,6.77
2018-05-26T09:07:33.052Z,5.53
2018-05-26T09:10:01.438Z,4.43
2018-05-26T09:12:30.653Z,3.20
2018-05-26T09:14:58.946Z,3.70
2018-05-26T09:17:28.174Z,3.27
2018-05-26T09:19:57.383Z,4.23
2018-05-26T09:22:25.463Z,4.90
2018-05-26T09:24:53.583Z,3.63
2018-05-26T09:27:22.493Z,3.77
2018-05-26T09:29:51.588Z,2.73
2018-05-26T09:32:20.451Z,3.03
2018-05-26T09:34:49.291Z,3.23
2018-05-26T09:37:17.617Z,2.73
2018-05-26T09:39:46.220Z,3.03
2018-05-26T09:42:15.369Z,2.63
2018-05-26T09:44:43.686Z,2.97
2018-05-26T09:47:12.900Z,2.90
2018-05-26T09:49:41.831Z,5.23
2018-05-26T09:52:10.113Z,2.47
2018-05-26T09:54:38.229Z,3.13
2018-05-26T09:57:07.323Z,2.47
2018-05-26T09:59:36.325Z,6.80
2018-05-26T10:02:05.265Z,2.73
2018-05-26T10:04:33.461Z,4.20
2018-05-26T10:07:01.949Z,4.57
2018-05-26T10:09:30.953Z,2.83
2018-05-26T10:11:59.877Z,3.73
2018-05-26T10:14:28.253Z,2.60
2018-05-26T10:16:56.460Z,3.70
2018-05-26T10:19:25.074Z,4.20
2018-05-26T10:21:54.071Z,2.47
2018-05-26T10:24:23.198Z,2.90
2018-05-26T10:26:52.101Z,2.93
2018-05-26T10:29:20.482Z,4.30
2018-05-26T10:31:48.834Z,3.20
2018-05-26T10:34:17.792Z,3.07
2018-05-26T10:36:46.915Z,3.40
2018-05-26T10:39:15.741Z,2.37
2018-05-26T10:41:44.218Z,3.47
2018-05-26T10:44:12.639Z,2.53
2018-05-26T10:46:41.076Z,4.10
2018-05-26T10:49:09.918Z,2.60
2018-05-26T10:51:38.856Z,4.80
2018-05-26T10:54:07.380Z,3.57
2018-05-26T10:56:36.428Z,3.37
2018-05-26T10:59:05.139Z,2.63
2018-05-26T11:01:33.773Z,4.97
2018-05-26T11:04:02.283Z,3.90
2018-05-26T11:06:35.849Z,3.00
2018-05-26T11:09:04.369Z,3.43
2018-05-26T11:11:32.846Z,2.57
2018-05-26T11:14:01.167Z,4.03
2018-05-26T11:16:30.454Z,3.30
2018-05-26T11:18:58.780Z,4.30
2018-05-26T11:21:27.017Z,3.43
2018-05-26T11:23:56.217Z,4.03
2018-05-26T11:26:24.420Z,4.47
2018-05-26T11:28:52.799Z,4.60
2018-05-26T11:31:21.068Z,2.60
2018-05-26T11:33:49.868Z,4.80
2018-05-26T11:36:18.330Z,6.60
2018-05-26T11:38:46.608Z,3.83
2018-05-26T11:41:15.369Z,3.27
2018-05-26T11:43:44.268Z,3.83
2018-05-26T11:46:12.912Z,3.17
2018-05-26T11:48:41.507Z,3.17
2018-05-26T11:51:10.065Z,2.97
2018-05-26T11:53:38.395Z,2.73
2018-05-26T11:56:06.603Z,3.40
2018-05-26T11:58:35.097Z,2.93
2018-05-26T12:01:03.660Z,3.03
2018-05-26T12:03:31.982Z,4.57
2018-05-26T12:06:01.070Z,2.83
2018-05-26T12:08:29.427Z,2.40
2018-05-26T12:10:57.703Z,2.70
2018-05-26T12:13:25.835Z,3.90
2018-05-26T12:15:54.848Z,3.27
2018-05-26T12:18:23.832Z,4.00
2018-05-26T12:20:53.212Z,3.93
2018-05-26T12:23:21.383Z,5.53
2018-05-26T12:25:49.619Z,2.87
2018-05-26T12:28:17.951Z,3.93
2018-05-26T12:30:46.281Z,3.80
2018-05-26T12:33:14.895Z,3.30
2018-05-26T12:35:43.310Z,3.20
2018-05-26T12:38:11.493Z,2.80
2018-05-26T12:40:39.685Z,2.60
2018-05-26T12:43:08.085Z,3.37
2018-05-26T12:45:37.517Z,3.60
2018-05-26T12:48:06.890Z,4.53
2018-05-26T12:50:35.108Z,3.10
2018-05-26T12:53:04.606Z,3.73
2018-05-26T12:55:32.866Z,4.00
2018-05-26T12:58:02.002Z,4.53
2018-05-26T13:00:30.215Z,3.50
2018-05-26T13:02:58.457Z,5.63
2018-05-26T13:05:26.807Z,3.87
2018-05-26T13:07:55.341Z,4.43
2018-05-26T13:10:23.653Z,3.93
2018-05-26T13:12:52.741Z,4.20
2018-05-26T13:15:21.068Z,3.20
2018-05-26T13:17:49.394Z,3.77
2018-05-26T13:20:18.616Z,7.23
2018-05-26T13:22:47.136Z,4.47
2018-05-26T13:25:15.429Z,3.57
2018-05-26T13:27:44.026Z,3.07
2018-05-26T13:30:13.854Z,4.07
2018-05-26T13:32:42.055Z,3.10
2018-05-26T13:35:10.375Z,4.53
2018-05-26T13:37:38.645Z,3.57
2018-05-26T13:40:06.993Z,4.67
2018-05-26T13:42:35.377Z,3.87
2018-05-26T13:45:03.757Z,3.60
2018-05-26T13:47:32.306Z,3.60
2018-05-26T13:50:00.782Z,3.73
2018-05-26T13:52:29.273Z,5.27
2018-05-26T13:54:57.415Z,3.17
2018-05-26T13:57:26.564Z,7.73
2018-05-26T13:59:55.001Z,3.00
2018-05-26T14:02:24.061Z,3.80
2018-05-26T14:04:52.370Z,3.63
2018-05-26T14:07:21.679Z,3.40
2018-05-26T14:09:50.756Z,2.70
2018-05-26T14:12:19.767Z,4.27
2018-05-26T14:14:48.036Z,3.73
2018-05-26T14:17:17.132Z,3.47
2018-05-26T14:19:46.167Z,3.80
2018-05-26T14:22:14.445Z,3.07
2018-05-26T14:24:43.042Z,2.47
2018-05-26T14:27:12.289Z,4.90
2018-05-26T14:29:41.163Z,5.30
2018-05-26T14:32:09.728Z,4.13
2018-05-26T14:34:38.499Z,2.60
2018-05-26T14:37:06.747Z,2.80
2018-05-26T14:39:35.101Z,2.47
2018-05-26T14:42:03.755Z,2.73
2018-05-26T14:44:31.919Z,2.70
2018-05-26T14:47:00.992Z,3.37
2018-05-26T14:49:29.193Z,2.63
2018-05-26T14:51:57.355Z,4.17
2018-05-26T14:54:25.952Z,2.53
2018-05-26T14:56:54.268Z,3.17
2018-05-26T14:59:23.358Z,2.73
2018-05-26T15:01:51.969Z,3.73
2018-05-26T15:04:20.225Z,2.60
2018-05-26T15:06:48.565Z,5.10
2018-05-26T15:09:17.137Z,2.50
2018-05-26T15:11:45.359Z,3.60
2018-05-26T15:14:13.631Z,4.77
2018-05-26T15:16:41.969Z,4.83
2018-05-26T15:19:10.953Z,3.07
2018-05-26T15:21:41.148Z,3.40
2018-05-26T15:24:09.418Z,3.57
2018-05-26T15:26:37.807Z,3.47
2018-05-26T15:29:06.188Z,3.23
2018-05-26T15:31:34.487Z,3.67
2018-05-26T15:34:02.645Z,4.03
2018-05-26T15:36:31.728Z,3.60
2018-05-26T15:39:00.302Z,2.80
2018-05-26T15:41:28.801Z,2.87
2018-05-26T15:43:57.157Z,3.60
2018-05-26T15:46:25.464Z,4.37
2018-05-26T15:48:53.947Z,2.83
2018-05-26T15:51:22.177Z,4.30
2018-05-26T15:53:50.333Z,3.20
2018-05-26T15:56:19.707Z,3.77
2018-05-26T15:58:48.205Z,4.53
2018-05-26T16:01:16.395Z,5.10
2018-05-26T16:03:45.280Z,3.23
2018-05-26T16:06:13.915Z,4.30
2018-05-26T16:08:42.622Z,5.10
2018-05-26T16:11:11.657Z,3.83
2018-05-26T16:13:39.984Z,3.10
2018-05-26T16:16:08.509Z,4.03
2018-05-26T16:18:36.948Z,6.47
2018-05-26T16:21:05.190Z,3.93
2018-05-26T16:23:33.936Z,3.70
2018-05-26T16:26:02.789Z,6.30
2018-05-26T16:28:31.343Z,7.10
2018-05-26T16:30:59.696Z,4.20
2018-05-26T16:33:28.318Z,4.60
2018-05-26T16:35:56.495Z,3.93
2018-05-26T16:38:24.956Z,5.63
2018-05-26T16:40:53.824Z,5.30
2018-05-26T16:43:22.872Z,5.20
2018-05-26T16:45:51.005Z,5.73
2018-05-26T16:48:19.404Z,5.03
2018-05-26T16:50:47.991Z,5.10
2018-05-26T16:53:16.863Z,6.40
2018-05-26T16:55:45.012Z,5.73
2018-05-26T16:58:13.606Z,6.23
2018-05-26T17:00:41.900Z,9.33
2018-05-26T17:03:10.309Z,10.57
2018-05-26T17:05:38.673Z,12.00
2018-05-26T17:08:07.891Z,10.27
2018-05-26T17:10:36.591Z,8.97
2018-05-26T17:13:05.743Z,8.67
2018-05-26T17:15:34.715Z,7.07
2018-05-26T17:18:03.146Z,5.80
2018-05-26T17:20:31.491Z,7.60
2018-05-26T17:22:59.869Z,7.70
2018-05-26T17:25:28.035Z,7.67
2018-05-26T17:27:56.522Z,5.40
2018-05-26T17:30:25.166Z,7.37
2018-05-26T17:32:54.876Z,9.73
2018-05-26T17:35:24.225Z,7.90
2018-05-26T17:37:52.708Z,7.53
2018-05-26T17:40:21.015Z,8.13
2018-05-26T17:42:50.374Z,8.33
2018-05-26T17:45:18.656Z,6.03
2018-05-26T17:47:47.410Z,6.40
2018-05-26T17:50:16.009Z,6.20
2018-05-26T17:52:45.589Z,6.43
2018-05-26T17:55:14.249Z,6.03
2018-05-26T17:57:43.477Z,6.87
2018-05-26T18:00:12.929Z,7.00
2018-05-26T18:02:42.827Z,7.83
2018-05-26T18:05:11.462Z,8.07
2018-05-26T18:07:39.858Z,6.27
2018-05-26T18:10:08.400Z,6.33
2018-05-26T18:12:36.839Z,6.83
2018-05-26T18:15:06.098Z,6.13
2018-05-26T18:17:34.911Z,6.83
2018-05-26T18:20:03.610Z,5.83
2018-05-26T18:22:32.996Z,6.53
2018-05-26T18:25:01.235Z,7.80
2018-05-26T18:27:30.403Z,5.90
2018-05-26T18:30:00.180Z,6.43
2018-05-26T18:32:29.378Z,8.83
2018-05-26T18:34:58.466Z,5.77
2018-05-26T18:37:27.026Z,8.70
2018-05-26T18:39:56.245Z,8.10
2018-05-26T18:42:24.714Z,6.23
2018-05-26T18:44:53.109Z,5.30
2018-05-26T18:47:21.360Z,5.53
2018-05-26T18:49:50.000Z,6.20
2018-05-26T18:52:18.516Z,6.63
2018-05-26T18:54:47.462Z,7.13
2018-05-26T18:57:15.848Z,9.30
2018-05-26T18:59:44.521Z,10.47
2018-05-26T19:02:12.678Z,8.83
2018-05-26T19:04:40.849Z,9.57
2018-05-26T19:07:09.665Z,8.50
2018-05-26T19:09:38.955Z,10.53
2018-05-26T19:12:07.195Z,8.50
2018-05-26T19:14:35.388Z,7.53
2018-05-26T19:17:04.064Z,8.20
2018-05-26T19:19:32.228Z,8.67
2018-05-26T19:22:00.603Z,11.33
2018-05-26T19:24:28.891Z,7.40
2018-05-26T19:26:57.294Z,10.37
2018-05-26T19:29:26.262Z,8.63
2018-05-26T19:31:55.597Z,8.07
2018-05-26T19:34:24.071Z,7.90
2018-05-26T19:36:53.427Z,10.90
2018-05-26T19:39:21.876Z,9.60
2018-05-26T19:41:50.136Z,7.73
2018-05-26T19:44:18.332Z,8.20
2018-05-26T19:46:46.715Z,8.97
2018-05-26T19:49:14.949Z,9.77
2018-05-26T19:51:43.233Z,10.97
2018-05-26T19:54:11.818Z,11.30
2018-05-26T19:56:40.017Z,11.47
2018-05-26T19:59:09.083Z,12.97
2018-05-26T20:01:37.862Z,12.47
2018-05-26T20:04:06.106Z,9.20
2018-05-26T20:06:34.925Z,9.73
2018-05-26T20:09:03.186Z,9.73
2018-05-26T20:11:32.043Z,10.60
2018-05-26T20:14:00.173Z,12.50
2018-05-26T20:16:28.559Z,10.27
2018-05-26T20:18:57.438Z,11.77
2018-05-26T20:21:25.708Z,10.20
2018-05-26T20:23:53.821Z,14.47
2018-05-26T20:26:22.716Z,9.77
2018-05-26T20:28:51.760Z,11.07
2018-05-26T20:31:20.127Z,9.70
2018-05-26T20:33:49.332Z,9.37
2018-05-26T20:36:17.493Z,10.80
2018-05-26T20:38:45.921Z,8.90
2018-05-26T20:41:13.962Z,9.93
2018-05-26T20:43:42.158Z,9.40
2018-05-26T20:46:10.319Z,12.10
2018-05-26T20:48:38.567Z,11.10
2018-05-26T20:51:06.639Z,9.87
2018-05-26T20:53:35.017Z,10.67
2018-05-26T20:56:03.142Z,10.77
2018-05-26T20:58:32.025Z,10.50
2018-05-26T21:01:01.031Z,10.80
2018-05-26T21:03:29.884Z,12.77
2018-05-26T21:05:58.373Z,10.83
2018-05-26T21:08:26.575Z,10.93
2018-05-26T21:10:55.422Z,11.63
2018-05-26T21:13:24.251Z,12.00
2018-05-26T21:15:53.113Z,12.83
2018-05-26T21:18:21.380Z,13.80
2018-05-26T21:20:49.624Z,13.10
2018-05-26T21:23:18.582Z,13.60
2018-05-26T21:25:47.705Z,13.27
2018-05-26T21:28:15.750Z,15.70
2018-05-26T21:30:44.111Z,13.63
2018-05-26T21:33:12.474Z,13.70
2018-05-26T21:35:40.658Z,12.53
2018-05-26T21:38:08.810Z,12.30
2018-05-26T21:40:36.951Z,12.33
2018-05-26T21:43:06.037Z,13.67
2018-05-26T21:45:35.172Z,13.37
2018-05-26T21:48:03.350Z,13.80
2018-05-26T21:50:31.453Z,11.93
2018-05-26T21:53:01.334Z,13.07
2018-05-26T21:55:29.405Z,12.13
2018-05-26T21:57:57.559Z,12.80
2018-05-26T22:00:26.673Z,13.50
2018-05-26T22:02:54.792Z,15.70
2018-05-26T22:05:23.660Z,21.67
2018-05-26T22:07:51.824Z,19.53
2018-05-26T22:10:20.075Z,18.07
2018-05-26T22:12:48.616Z,13.20
2018-05-26T22:15:17.445Z,11.57
2018-05-26T22:17:45.766Z,11.87
2018-05-26T22:20:14.664Z,11.27
2018-05-26T22:22:45.156Z,11.97
2018-05-26T22:25:14.164Z,12.93
2018-05-26T22:27:42.485Z,11.63
2018-05-26T22:30:11.105Z,11.80
2018-05-26T22:32:39.209Z,12.33
2018-05-26T22:35:07.446Z,12.43
2018-05-26T22:37:35.569Z,13.73
2018-05-26T22:40:04.445Z,12.37
2018-05-26T22:42:33.231Z,12.23
2018-05-26T22:45:01.707Z,12.00
2018-05-26T22:47:29.749Z,13.17
2018-05-26T22:49:57.976Z,12.10
2018-05-26T22:52:26.936Z,11.73
2018-05-26T22:54:55.237Z,12.20
2018-05-26T22:57:23.725Z,12.13
2018-05-26T22:59:52.733Z,13.57
2018-05-26T23:02:20.965Z,11.40
2018-05-26T23:04:49.389Z,11.47
2018-05-26T23:07:19.449Z,12.53
2018-05-26T23:09:47.960Z,11.53
2018-05-26T23:12:16.108Z,11.67
2018-05-26T23:14:45.094Z,12.77
2018-05-26T23:17:13.150Z,13.80
2018-05-26T23:19:41.237Z,14.13
2018-05-26T23:22:09.495Z,13.80
2018-05-26T23:24:37.739Z,13.97
2018-05-26T23:27:05.861Z,13.70
2018-05-26T23:29:34.005Z,14.20
2018-05-26T23:32:02.061Z,13.87
2018-05-26T23:34:30.572Z,14.23
2018-05-26T23:36:58.670Z,13.50
2018-05-26T23:39:27.280Z,13.67
2018-05-26T23:41:56.139Z,12.70
2018-05-26T23:44:24.262Z,12.77
2018-05-26T23:46:52.351Z,13.70
2018-05-26T23:49:20.748Z,12.77
2018-05-26T23:51:48.920Z,12.73
2018-05-26T23:54:17.330Z,13.47
2018-05-26T23:56:46.172Z,13.20
2018-05-26T23:59:14.573Z,13.53
